Time;durP1;ratioP1;P1;durP2;ratioP2;P2;SDS_P1;SDS_P2;PMS_P1;PMS_P2;Temp;Humidity;BMP_temperature;BMP_pressure;BME280_temperature;BME280_humidity;BME280_pressure;Samples;Min_cycle;Max_cycle;Signal;HPM_P1;HPM_P2
2023/10/02 00:00:40;;;;;;;15.90;7.87;;;;;;;20.73;100.00;96916.44;5004479;28;20537;-79
2023/10/02 00:03:09;;;;;;;15.60;7.90;;;;;;;20.69;100.00;96907.16;5011098;28;20025;-79
2023/10/02 00:05:52;;;;;;;23.63;10.20;;;;;;;20.68;100.00;96911.69;5021110;28;20441;-80
2023/10/02 00:11:39;;;;;;;108.57;45.10;;;;;;;20.50;100.00;96914.13;5026893;28;20041;-80
2023/10/02 00:14:23;;;;;;;128.67;48.60;;;;;;;20.68;100.00;96905.53;5023505;28;20025;-79
2023/10/02 00:17:00;;;;;;;86.10;34.17;;;;;;;20.54;100.00;96911.91;5013400;28;20503;-79
2023/10/02 00:19:27;;;;;;;89.47;35.50;;;;;;;20.53;100.00;96910.28;5035094;28;20376;-79
2023/10/02 00:21:57;;;;;;;96.87;40.03;;;;;;;20.70;100.00;96903.47;5023693;28;20029;-79
2023/10/02 00:24:40;;;;;;;36.93;17.83;;;;;;;20.63;100.00;96897.31;5036562;28;20578;-79
2023/10/02 00:27:08;;;;;;;26.52;11.98;;;;;;;20.59;100.00;96891.56;5040420;28;20033;-80
2023/10/02 00:29:34;;;;;;;26.90;10.27;;;;;;;20.78;100.00;96889.88;5007417;28;20152;-79
2023/10/02 00:32:11;;;;;;;16.37;9.27;;;;;;;20.72;100.00;96896.06;5006005;28;20447;-80
2023/10/02 00:34:39;;;;;;;21.27;9.60;;;;;;;21.08;100.00;96890.25;5012828;28;20025;-79
2023/10/02 00:37:13;;;;;;;17.43;8.03;;;;;;;21.07;100.00;96895.81;5008888;28;20396;-79
2023/10/02 00:39:47;;;;;;;24.77;11.07;;;;;;;21.14;100.00;96893.94;5025718;28;20108;-79
2023/10/02 00:44:56;;;;;;;;;;;;;;;21.11;100.00;96887.16;5019665;28;20090;-80
2023/10/02 00:47:41;;;;;;;42.53;17.47;;;;;;;20.90;100.00;96890.91;5023644;28;20311;-80
2023/10/02 00:50:19;;;;;;;37.93;17.27;;;;;;;20.88;100.00;96882.25;5001574;28;20033;-82
2023/10/02 00:52:50;;;;;;;32.57;15.50;;;;;;;21.00;100.00;96884.31;4996859;28;20049;-80
2023/10/02 00:55:24;;;;;;;23.80;11.63;;;;;;;20.87;100.00;96880.63;5024219;28;20039;-80
2023/10/02 00:57:52;;;;;;;26.17;11.63;;;;;;;21.00;100.00;96881.66;5026459;28;20506;-80
2023/10/02 01:00:30;;;;;;;29.43;13.30;;;;;;;20.70;100.00;96877.56;5026412;28;20018;-80
2023/10/02 01:03:01;;;;;;;29.47;13.10;;;;;;;20.85;100.00;96877.31;5026953;28;20501;-81
2023/10/02 01:05:41;;;;;;;23.13;11.83;;;;;;;20.93;100.00;96882.47;5024497;28;20041;-80
2023/10/02 01:08:23;;;;;;;21.87;10.57;;;;;;;20.88;100.00;96879.59;5027693;28;20028;-80
2023/10/02 01:11:02;;;;;;;16.67;9.03;;;;;;;20.99;100.00;96874.63;5020652;28;20026;-80
2023/10/02 01:13:34;;;;;;;21.03;9.50;;;;;;;21.03;100.00;96881.22;5001960;28;20026;-80
2023/10/02 01:16:11;;;;;;;16.95;8.10;;;;;;;21.00;100.00;96876.28;5024599;28;20659;-80
2023/10/02 01:18:39;;;;;;;30.23;15.17;;;;;;;21.35;100.00;96874.97;5013100;28;20132;-80
2023/10/02 01:21:11;;;;;;;27.27;13.33;;;;;;;21.06;100.00;96873.59;5028522;28;20037;-80
2023/10/02 01:24:09;;;;;;;29.33;14.20;;;;;;;21.16;100.00;96871.31;5036679;28;20041;-80
2023/10/02 01:26:35;;;;;;;28.77;13.17;;;;;;;21.13;100.00;96869.06;5017722;28;20542;-80
2023/10/02 01:29:04;;;;;;;25.17;11.40;;;;;;;20.93;100.00;96866.44;5012674;28;20030;-80
2023/10/02 01:31:41;;;;;;;30.57;14.13;;;;;;;20.78;100.00;96871.16;5024989;28;20029;-80
2023/10/02 01:34:10;;;;;;;27.10;13.37;;;;;;;20.68;100.00;96868.91;5019184;28;20030;-80
2023/10/02 01:36:41;;;;;;;29.90;13.33;;;;;;;20.68;100.00;96868.09;5009477;28;20029;-80
2023/10/02 01:39:16;;;;;;;26.87;12.27;;;;;;;20.78;100.00;96867.69;5035171;28;20121;-80
2023/10/02 01:41:48;;;;;;;25.47;12.33;;;;;;;20.71;100.00;96873.03;5023653;28;20024;-80
2023/10/02 01:44:20;;;;;;;26.73;12.88;;;;;;;20.75;100.00;96866.25;5010683;28;20030;-80
2023/10/02 01:46:49;;;;;;;26.70;12.33;;;;;;;20.64;100.00;96873.03;5010558;28;20052;-80
2023/10/02 01:49:25;;;;;;;19.33;9.80;;;;;;;20.64;100.00;96859.69;5010474;28;20026;-80
2023/10/02 01:51:55;;;;;;;22.73;11.17;;;;;;;20.56;100.00;96864.44;5023064;28;20087;-80
2023/10/02 01:54:22;;;;;;;21.47;9.70;;;;;;;20.45;100.00;96868.50;5010530;28;20037;-80
2023/10/02 01:56:49;;;;;;;20.50;10.33;;;;;;;20.46;100.00;96870.97;5043998;28;20020;-80
2023/10/02 01:59:18;;;;;;;24.30;10.63;;;;;;;20.66;100.00;96872.84;5026725;28;20113;-80
2023/10/02 02:01:51;;;;;;;26.83;13.00;;;;;;;20.76;100.00;96864.38;5017900;28;20128;-80
2023/10/02 02:04:27;;;;;;;28.27;14.33;;;;;;;20.51;100.00;96872.22;5014284;28;20028;-80
2023/10/02 02:06:55;;;;;;;34.57;15.90;;;;;;;20.59;100.00;96864.84;5025517;28;20388;-80
2023/10/02 02:09:30;;;;;;;30.40;14.23;;;;;;;20.52;100.00;96857.84;5013332;28;20095;-80
2023/10/02 02:12:05;;;;;;;30.20;14.20;;;;;;;20.55;100.00;96863.59;5014685;28;20029;-80
2023/10/02 02:14:32;;;;;;;24.13;11.70;;;;;;;20.21;100.00;96859.25;5032898;28;20483;-80
2023/10/02 02:16:59;;;;;;;19.07;9.53;;;;;;;20.29;100.00;96867.06;5012733;28;20026;-80
2023/10/02 02:19:25;;;;;;;23.87;9.93;;;;;;;20.00;100.00;96861.06;5030080;28;20029;-80
2023/10/02 02:21:52;;;;;;;19.93;8.87;;;;;;;19.93;100.00;96862.91;5032769;28;20576;-80
2023/10/02 02:24:17;;;;;;;20.03;9.13;;;;;;;20.04;100.00;96856.16;5009206;28;20025;-80
2023/10/02 02:26:57;;;;;;;19.63;9.30;;;;;;;20.07;100.00;96857.59;5015517;28;20033;-80
2023/10/02 02:29:23;;;;;;;18.43;9.97;;;;;;;19.91;100.00;96853.47;5032345;28;20075;-83
2023/10/02 02:31:56;;;;;;;20.10;9.60;;;;;;;20.29;100.00;96856.41;5032444;28;20025;-80
2023/10/02 02:34:23;;;;;;;14.00;7.72;;;;;;;20.11;100.00;96856.97;5010768;28;20022;-80
2023/10/02 02:36:53;;;;;;;19.73;9.53;;;;;;;20.17;100.00;96850.81;5010287;28;20547;-80
2023/10/02 02:39:22;;;;;;;17.27;9.10;;;;;;;19.93;100.00;96852.25;5014871;28;20445;-80
2023/10/02 02:42:08;;;;;;;19.33;8.63;;;;;;;19.92;100.00;96847.94;5013051;28;20026;-80
2023/10/02 02:44:43;;;;;;;18.33;9.70;;;;;;;19.86;100.00;96845.25;5015432;28;20032;-80
2023/10/02 02:47:13;;;;;;;22.50;10.57;;;;;;;19.85;100.00;96847.09;5013918;28;20037;-79
2023/10/02 02:49:52;;;;;;;19.53;9.30;;;;;;;19.90;100.00;96841.97;5029397;28;20033;-80
2023/10/02 02:52:26;;;;;;;18.07;9.33;;;;;;;20.07;100.00;96849.59;5019619;28;20030;-80
2023/10/02 02:55:03;;;;;;;20.17;9.50;;;;;;;20.09;100.00;96852.91;5028544;28;20025;-80
2023/10/02 02:57:34;;;;;;;18.67;8.47;;;;;;;19.90;100.00;96849.97;5030164;28;20057;-80
2023/10/02 03:02:52;;;;;;;17.93;9.17;;;;;;;20.19;100.00;96845.28;5029898;28;20482;-80
2023/10/02 03:05:23;;;;;;;18.57;9.07;;;;;;;20.07;100.00;96850.41;5030540;28;20033;-80
2023/10/02 03:07:56;;;;;;;19.77;9.10;;;;;;;20.28;100.00;96845.91;5029256;28;20349;-80
2023/10/02 03:10:23;;;;;;;;;;;;;;;20.16;100.00;96853.72;5029006;28;20076;-80
2023/10/02 03:12:51;;;;;;;18.53;8.70;;;;;;;20.31;100.00;96853.50;5018307;28;19910;-80
2023/10/02 03:15:45;;;;;;;17.00;8.03;;;;;;;20.51;100.00;96850.84;5012689;28;20098;-80
2023/10/02 03:18:22;;;;;;;16.33;8.50;;;;;;;20.10;100.00;96862.53;5023793;28;20033;-80
2023/10/02 03:20:52;;;;;;;18.77;9.47;;;;;;;20.00;100.00;96861.06;5013732;28;20884;-80
2023/10/02 03:23:18;;;;;;;17.43;8.50;;;;;;;20.01;100.00;96861.91;5028890;28;20018;-80
2023/10/02 03:25:48;;;;;;;18.07;9.47;;;;;;;20.09;100.00;96859.06;5024927;28;20036;-80
2023/10/02 03:28:32;;;;;;;19.10;10.03;;;;;;;19.87;100.00;96861.06;5024133;28;20029;-80
2023/10/02 03:31:00;;;;;;;19.87;8.87;;;;;;;20.29;100.00;96861.72;5004145;28;20080;-80
2023/10/02 03:33:31;;;;;;;21.83;11.10;;;;;;;20.22;100.00;96866.22;5008999;28;20076;-80
2023/10/02 03:36:10;;;;;;;17.10;8.23;;;;;;;20.09;100.00;96858.22;5015586;28;20387;-80
2023/10/02 03:38:42;;;;;;;18.17;9.23;;;;;;;20.00;100.00;96863.75;5014657;28;20103;-80
2023/10/02 03:41:09;;;;;;;17.17;8.87;;;;;;;20.08;100.00;96857.38;5017391;28;20025;-80
2023/10/02 03:43:46;;;;;;;17.27;9.20;;;;;;;19.88;100.00;96861.88;5028108;28;20031;-80
2023/10/02 03:46:23;;;;;;;17.33;9.13;;;;;;;19.68;100.00;96856.50;5009172;28;20033;-80
2023/10/02 03:48:58;;;;;;;19.77;8.63;;;;;;;19.71;100.00;96861.44;5047089;28;20023;-80
2023/10/02 03:51:36;;;;;;;18.87;9.23;;;;;;;19.75;100.00;96858.16;5032127;28;20029;-80
2023/10/02 03:54:17;;;;;;;17.43;9.10;;;;;;;19.57;100.00;96865.06;5034405;28;20066;-80
2023/10/02 03:56:47;;;;;;;18.57;8.53;;;;;;;19.41;100.00;96856.38;5009420;28;20024;-80
2023/10/02 03:59:17;;;;;;;18.60;8.73;;;;;;;19.25;100.00;96851.41;5011543;28;20484;-80
2023/10/02 04:01:43;;;;;;;19.53;9.37;;;;;;;19.28;100.00;96858.97;5009823;28;20033;-80
2023/10/02 04:06:44;;;;;;;19.27;9.70;;;;;;;18.61;100.00;96861.25;5024880;28;20046;-80
2023/10/02 04:11:50;;;;;;;19.87;9.37;;;;;;;18.89;100.00;96851.63;5029826;28;20022;-79
2023/10/02 04:14:32;;;;;;;18.98;8.45;;;;;;;18.96;100.00;96853.31;5016432;28;20036;-79
2023/10/02 04:22:19;;;;;;;19.37;9.27;;;;;;;18.48;100.00;96863.84;5029684;28;20095;-80
2023/10/02 04:24:54;;;;;;;19.27;9.73;;;;;;;18.66;100.00;96859.84;5013176;28;20041;-80
2023/10/02 04:32:49;;;;;;;17.77;9.43;;;;;;;18.82;100.00;96864.91;5015290;28;20056;-80
2023/10/02 04:38:07;;;;;;;18.10;9.07;;;;;;;18.91;100.00;96861.06;5035621;28;19967;-80
2023/10/02 04:40:52;;;;;;;20.35;10.77;;;;;;;18.69;100.00;96862.13;5035350;28;20029;-79
2023/10/02 04:46:08;;;;;;;20.23;10.13;;;;;;;18.67;100.00;96869.47;5027037;28;20021;-80
2023/10/02 04:48:39;;;;;;;20.80;9.93;;;;;;;18.85;100.00;96861.84;5014628;28;20029;-79
2023/10/02 04:51:11;;;;;;;18.03;10.30;;;;;;;18.82;100.00;96868.41;5034907;28;20108;-79
2023/10/02 04:53:37;;;;;;;20.57;10.50;;;;;;;18.81;100.00;96864.09;5037269;28;20037;-79
2023/10/02 04:58:51;;;;;;;21.17;10.67;;;;;;;18.64;100.00;96867.22;5027299;28;20030;-80
2023/10/02 05:01:41;;;;;;;18.90;10.20;;;;;;;18.70;100.00;96864.59;5018719;28;20484;-79
2023/10/02 05:04:07;;;;;;;22.23;10.43;;;;;;;18.42;100.00;96869.09;5027438;28;20040;-80
2023/10/02 05:09:21;;;;;;;18.23;11.33;;;;;;;18.86;100.00;96868.81;5022728;28;20033;-80
2023/10/02 05:12:06;;;;;;;20.97;11.20;;;;;;;18.55;100.00;96870.03;5017741;28;20087;-80
2023/10/02 05:14:47;;;;;;;22.40;11.23;;;;;;;18.81;100.00;96863.25;5027265;28;20029;-80
2023/10/02 05:20:03;;;;;;;24.30;12.70;;;;;;;18.40;100.00;96868.47;5034844;28;20116;-80
2023/10/02 05:22:31;;;;;;;21.67;11.27;;;;;;;18.98;100.00;96856.59;5037675;28;20037;-81
2023/10/02 05:24:58;;;;;;;22.20;11.70;;;;;;;19.15;100.00;96864.25;5039317;28;20037;-78
2023/10/02 05:27:29;;;;;;;23.17;13.37;;;;;;;19.14;100.00;96859.94;5012253;28;20033;-78
2023/10/02 05:29:56;;;;;;;22.20;12.70;;;;;;;19.33;100.00;96869.88;5023154;28;20383;-78
2023/10/02 05:32:31;;;;;;;23.50;12.90;;;;;;;19.32;100.00;96862.91;5012335;28;20501;-78
2023/10/02 05:37:45;;;;;;;23.93;13.43;;;;;;;19.35;100.00;96867.84;5026693;28;20033;-78
2023/10/02 05:45:39;;;;;;;23.97;12.83;;;;;;;20.13;100.00;96875.47;5030729;28;20022;-79
2023/10/02 05:48:14;;;;;;;25.92;14.32;;;;;;;19.95;100.00;96876.91;5024297;28;20041;-78
2023/10/02 05:50:52;;;;;;;22.67;12.90;;;;;;;19.27;100.00;96884.00;5020850;28;20091;-78
2023/10/02 05:53:29;;;;;;;24.03;14.17;;;;;;;19.61;100.00;96882.31;5035515;28;20037;-78
2023/10/02 05:58:39;;;;;;;23.47;12.60;;;;;;;20.32;100.00;96874.69;5025602;28;20429;-79
2023/10/02 06:01:18;;;;;;;20.90;11.43;;;;;;;21.02;100.00;96877.69;5030170;28;20021;-79
2023/10/02 06:03:56;;;;;;;21.83;11.77;;;;;;;21.06;100.00;96870.94;5035553;28;20522;-79
2023/10/02 06:06:23;;;;;;;22.57;10.40;;;;;;;21.22;100.00;96869.63;5010833;28;20021;-78
2023/10/02 06:08:55;;;;;;;21.80;11.17;;;;;;;21.54;100.00;96878.59;5009232;28;20396;-80
2023/10/02 06:11:26;;;;;;;16.20;7.93;;;;;;;21.03;100.00;96882.03;5012941;28;20017;-79
2023/10/02 06:14:10;;;;;;;20.97;10.07;;;;;;;20.51;100.00;96882.91;5031460;28;20026;-79
2023/10/02 06:16:39;;;;;;;19.50;10.60;;;;;;;20.60;100.00;96876.34;5029581;28;20025;-79
2023/10/02 06:19:07;;;;;;;19.77;10.23;;;;;;;21.07;100.00;96882.44;5037239;28;20088;-79
2023/10/02 06:24:27;;;;;;;20.77;10.13;;;;;;;20.85;100.00;96890.69;5030168;28;20067;-79
2023/10/02 06:27:15;;;;;;;18.05;9.40;;;;;;;21.01;100.00;96885.94;5036669;28;20029;-79
2023/10/02 06:29:44;;;;;;;21.00;10.10;;;;;;;20.62;100.00;96883.13;5060383;28;20032;-79
2023/10/02 06:32:19;;;;;;;19.07;10.20;;;;;;;21.42;100.00;96874.94;5019203;28;20104;-79
2023/10/02 06:34:50;;;;;;;18.93;9.67;;;;;;;22.21;100.00;96875.59;5017548;28;20025;-79
2023/10/02 06:37:35;;;;;;;19.60;10.10;;;;;;;21.73;100.00;96868.84;5041050;28;20035;-79
2023/10/02 06:40:14;;;;;;;20.83;10.30;;;;;;;22.65;100.00;96873.78;5032511;28;20025;-79
2023/10/02 06:43:00;;;;;;;20.80;10.18;;;;;;;22.42;100.00;96875.19;5033073;28;20043;-79
2023/10/02 06:45:26;;;;;;;18.60;10.02;;;;;;;22.47;100.00;96879.94;5031773;28;20056;-79
2023/10/02 06:47:56;;;;;;;17.42;9.68;;;;;;;22.80;100.00;96877.78;5036112;28;20430;-79
2023/10/02 06:50:30;;;;;;;19.60;9.45;;;;;;;22.40;100.00;96885.34;5046460;28;20428;-79
2023/10/02 06:52:59;;;;;;;22.67;10.40;;;;;;;23.46;100.00;96880.81;5038895;28;20029;-79
2023/10/02 06:55:27;;;;;;;16.67;8.88;;;;;;;23.47;100.00;96872.53;5031107;28;20067;-79
2023/10/02 06:57:53;;;;;;;16.52;8.23;;;;;;;23.07;100.00;96890.94;5025710;28;20407;-79
2023/10/02 07:00:21;;;;;;;16.63;8.50;;;;;;;24.09;97.78;96877.72;5009319;28;20024;-79
2023/10/02 07:02:56;;;;;;;19.52;9.15;;;;;;;24.91;89.49;96877.03;5027543;28;20112;-79
2023/10/02 07:05:32;;;;;;;19.60;8.75;;;;;;;24.43;97.12;96886.94;5029709;28;20021;-80
2023/10/02 07:08:22;;;;;;;20.50;9.15;;;;;;;24.60;91.28;96892.47;5026082;28;20096;-80
2023/10/02 07:10:48;;;;;;;20.83;10.35;;;;;;;25.30;87.82;96890.84;5012138;28;20026;-79
2023/10/02 07:13:23;;;;;;;17.17;8.57;;;;;;;25.81;80.87;96886.53;5023039;28;20021;-80
2023/10/02 07:15:55;;;;;;;17.15;8.98;;;;;;;26.12;79.22;96887.09;5014503;28;20048;-79
2023/10/02 07:18:35;;;;;;;14.95;8.43;;;;;;;25.50;85.99;96891.28;5029462;28;20096;-80
2023/10/02 07:21:02;;;;;;;17.67;9.73;;;;;;;26.03;83.05;96892.88;5031479;28;20027;-80
2023/10/02 07:23:30;;;;;;;19.27;9.52;;;;;;;26.36;77.36;96893.16;5028829;28;20061;-79
2023/10/02 07:25:56;;;;;;;19.30;9.60;;;;;;;26.30;79.38;96889.59;5013122;28;20039;-79
2023/10/02 07:28:22;;;;;;;18.33;9.55;;;;;;;26.09;81.26;96888.41;5037095;28;20129;-79
2023/10/02 07:30:51;;;;;;;16.05;9.18;;;;;;;26.97;75.99;96886.91;5007634;28;20079;-80
2023/10/02 07:33:29;;;;;;;18.73;9.30;;;;;;;28.26;69.65;96881.19;5027814;28;20537;-79
2023/10/02 07:35:55;;;;;;;17.35;8.88;;;;;;;28.23;65.48;96885.22;5027924;28;20108;-79
2023/10/02 07:38:30;;;;;;;17.55;8.45;;;;;;;28.00;68.43;96880.13;5023901;28;20021;-79
2023/10/02 07:41:08;;;;;;;16.15;8.73;;;;;;;29.27;61.61;96874.94;5043412;28;20032;-80
2023/10/02 07:43:34;;;;;;;16.30;8.35;;;;;;;28.94;62.44;96878.78;5017916;28;20390;-79
2023/10/02 07:46:18;;;;;;;16.17;8.88;;;;;;;29.27;61.92;96867.63;5024229;28;20025;-79
2023/10/02 07:49:05;;;;;;;14.70;9.07;;;;;;;30.32;55.87;96872.09;5028013;28;20033;-79
2023/10/02 07:51:37;;;;;;;16.83;9.40;;;;;;;30.80;53.52;96874.56;5029631;28;20408;-79
2023/10/02 07:54:13;;;;;;;16.50;9.50;;;;;;;29.65;57.64;96878.44;5027421;28;20027;-79
2023/10/02 07:56:41;;;;;;;19.95;9.02;;;;;;;30.21;58.12;96873.97;5040754;28;20017;-79
2023/10/02 07:59:09;;;;;;;15.02;8.85;;;;;;;31.29;52.92;96873.91;5020029;28;20022;-79
2023/10/02 08:01:35;;;;;;;15.20;8.48;;;;;;;30.28;55.83;96868.28;5018100;28;20049;-79
2023/10/02 08:04:03;;;;;;;18.67;9.90;;;;;;;30.11;57.68;96876.63;5011007;28;20499;-80
2023/10/02 08:06:36;;;;;;;19.38;10.32;;;;;;;30.39;55.90;96866.41;5028300;28;20048;-80
2023/10/02 08:11:52;;;;;;;20.88;10.55;;;;;;;31.09;55.18;96869.38;5024770;28;20029;-79
2023/10/02 08:17:18;;;;;;;16.23;9.73;;;;;;;31.10;54.23;96860.13;5026069;28;20025;-80
2023/10/02 08:19:54;;;;;;;20.10;10.60;;;;;;;31.27;53.39;96865.25;5016256;28;20036;-80
2023/10/02 08:22:35;;;;;;;17.52;10.73;;;;;;;32.48;49.85;96865.75;5025693;28;20020;-80
2023/10/02 08:25:14;;;;;;;25.00;9.85;;;;;;;32.65;47.15;96859.06;5022255;28;20066;-80
2023/10/02 08:27:42;;;;;;;17.33;10.25;;;;;;;32.14;49.74;96860.25;5017193;28;20036;-80
2023/10/02 08:30:26;;;;;;;16.98;9.65;;;;;;;31.94;49.56;96858.47;5011167;28;20022;-80
2023/10/02 08:33:06;;;;;;;15.50;10.35;;;;;;;32.36;47.78;96860.66;5015002;28;20025;-80
2023/10/02 08:35:41;;;;;;;17.40;10.20;;;;;;;33.83;43.41;96859.44;4995370;28;20026;-80
2023/10/02 08:38:07;;;;;;;19.10;10.32;;;;;;;32.72;46.97;96856.84;5033462;28;20386;-80
2023/10/02 08:40:40;;;;;;;17.88;10.40;;;;;;;31.96;47.63;96855.47;5033164;28;20026;-80
2023/10/02 08:43:05;;;;;;;18.67;10.32;;;;;;;33.40;44.12;96845.81;5010555;28;20020;-80
2023/10/02 08:45:33;;;;;;;15.27;10.00;;;;;;;32.85;45.25;96856.16;5022359;28;20030;-80
2023/10/02 08:48:07;;;;;;;18.25;10.05;;;;;;;33.04;44.36;96851.66;5010594;28;20044;-80
2023/10/02 08:50:57;;;;;;;20.00;10.32;;;;;;;33.40;42.71;96848.53;5038855;28;20056;-80
2023/10/02 08:53:28;;;;;;;15.90;9.75;;;;;;;34.55;41.70;96842.06;5030661;28;20029;-80
2023/10/02 08:56:05;;;;;;;17.77;10.23;;;;;;;34.81;41.39;96846.00;5024694;28;20025;-80
2023/10/02 08:58:31;;;;;;;15.27;8.60;;;;;;;35.62;40.64;96848.31;5026258;28;20098;-80
2023/10/02 09:03:42;;;;;;;16.00;10.40;;;;;;;35.73;38.54;96851.63;5026984;28;20102;-80
2023/10/02 09:06:28;;;;;;;16.75;10.40;;;;;;;36.13;38.97;96863.63;5012168;28;20090;-80
2023/10/02 09:11:39;;;;;;;15.02;9.45;;;;;;;36.74;38.08;96851.22;5029895;28;20026;-82
2023/10/02 09:14:39;;;;;;;17.13;10.20;;;;;;;37.17;36.75;96847.91;5020810;28;20032;-81
2023/10/02 09:17:23;;;;;;;19.98;10.60;;;;;;;35.68;34.68;96858.00;5012709;28;20037;-83
2023/10/02 09:20:07;;;;;;;15.63;10.27;;;;;;;37.30;34.40;96857.19;5045275;28;20022;-83
2023/10/02 09:22:37;;;;;;;18.80;10.38;;;;;;;38.01;34.08;96848.03;5034649;28;20061;-83
2023/10/02 09:25:26;;;;;;;15.52;9.80;;;;;;;37.48;33.68;96852.56;5016010;28;20032;-83
2023/10/02 09:27:57;;;;;;;18.05;10.75;;;;;;;38.59;32.24;96842.03;5021217;28;20018;-83
2023/10/02 09:33:02;;;;;;;15.30;9.43;;;;;;;38.36;32.39;96826.84;5038900;28;20111;-83
2023/10/02 09:35:29;;;;;;;17.65;10.20;;;;;;;37.98;31.24;96827.50;5034935;28;20045;-82
2023/10/02 09:38:06;;;;;;;16.77;9.80;;;;;;;37.21;32.21;96832.44;5032215;28;20033;-83
2023/10/02 09:41:15;;;;;;;17.88;10.55;;;;;;;38.27;31.39;96832.38;5014466;28;20026;-83
2023/10/02 09:43:32;;;;;;;19.75;10.73;;;;;;;37.22;32.97;96825.03;5027649;28;20061;-83
2023/10/02 09:46:06;;;;;;;17.30;11.07;;;;;;;37.57;31.25;96820.50;5039934;28;20482;-82
2023/10/02 09:48:52;;;;;;;16.67;10.20;;;;;;;38.90;31.05;96821.78;5034762;28;20017;-83
2023/10/02 09:51:30;;;;;;;17.15;10.07;;;;;;;39.14;29.88;96822.03;5027570;28;20025;-83
2023/10/02 09:54:09;;;;;;;18.75;10.50;;;;;;;37.55;30.97;96816.44;5012794;28;20033;-83
2023/10/02 09:56:51;;;;;;;19.50;12.57;;;;;;;37.72;30.67;96820.00;5012741;28;20044;-83
2023/10/02 09:59:24;;;;;;;;;;;;;;;37.88;29.77;96816.81;5011662;28;20065;-82
2023/10/02 10:02:07;;;;;;;16.90;11.35;;;;;;;37.88;29.34;96806.63;5009380;28;19920;-83
2023/10/02 10:05:01;;;;;;;19.35;11.45;;;;;;;38.49;28.67;96812.16;5031318;28;20029;-83
2023/10/02 10:10:29;;;;;;;21.10;12.80;;;;;;;39.14;28.09;96800.03;5026592;28;20029;-83
2023/10/02 10:13:09;;;;;;;30.23;11.82;;;;;;;39.23;28.17;96810.16;5006441;28;20068;-83
2023/10/02 10:15:37;;;;;;;21.38;13.35;;;;;;;38.53;29.19;96807.63;5026399;28;20045;-83
2023/10/02 10:18:12;;;;;;;20.85;13.23;;;;;;;38.54;29.64;96802.94;5031081;28;20029;-83
2023/10/02 10:20:38;;;;;;;22.40;13.23;;;;;;;39.71;29.84;96801.53;5030484;28;20438;-82
2023/10/02 10:23:31;;;;;;;18.00;11.48;;;;;;;39.87;30.06;96798.97;5014531;28;20431;-82
2023/10/02 10:26:07;;;;;;;19.95;12.80;;;;;;;39.23;28.82;96802.72;5026123;28;20044;-81
2023/10/02 10:28:50;;;;;;;22.23;14.43;;;;;;;39.24;28.46;96798.06;5032672;28;20018;-82
2023/10/02 10:31:29;;;;;;;23.77;17.80;;;;;;;40.67;28.60;96798.00;5007370;28;20441;-81
2023/10/02 10:33:56;;;;;;;23.65;15.55;;;;;;;39.42;29.87;96799.59;5026308;28;20037;-82
2023/10/02 10:36:36;;;;;;;21.80;12.98;;;;;;;40.99;28.15;96791.63;5014121;28;20027;-82
2023/10/02 10:39:44;;;;;;;20.25;12.85;;;;;;;41.48;28.07;96784.53;5028339;28;20061;-82
2023/10/02 10:42:00;;;;;;;18.92;12.45;;;;;;;39.30;30.69;96788.47;5020659;28;20025;-82
2023/10/02 10:44:35;;;;;;;23.02;14.95;;;;;;;39.82;27.73;96777.97;5021826;28;20422;-81
2023/10/02 10:47:03;;;;;;;26.33;15.55;;;;;;;39.17;27.42;96782.06;5022282;28;20055;-81
2023/10/02 10:50:11;;;;;;;22.08;14.57;;;;;;;40.01;28.71;96780.25;5012270;28;20026;-82
2023/10/02 10:52:38;;;;;;;21.23;14.32;;;;;;;39.16;30.03;96772.19;5027695;28;20548;-81
2023/10/02 10:55:32;;;;;;;28.33;16.48;;;;;;;39.62;29.33;96769.69;5029301;28;20136;-82
2023/10/02 10:57:58;;;;;;;22.92;15.48;;;;;;;38.66;28.05;96770.09;5020741;28;20041;-82
2023/10/02 11:00:23;;;;;;;26.27;15.55;;;;;;;37.65;29.87;96770.28;5028550;28;20391;-82
2023/10/02 11:03:08;;;;;;;23.60;16.15;;;;;;;39.99;28.37;96768.75;5019989;28;20040;-82
2023/10/02 11:05:36;;;;;;;24.52;15.95;;;;;;;38.72;28.85;96768.78;5011543;28;20035;-82
2023/10/02 11:08:23;;;;;;;25.63;18.00;;;;;;;37.59;29.75;96768.81;5031520;28;20025;-82
2023/10/02 11:11:19;;;;;;;22.52;15.10;;;;;;;39.32;28.19;96770.50;5026870;28;20385;-82
2023/10/02 11:13:54;;;;;;;27.65;16.88;;;;;;;39.08;27.42;96759.28;5032851;28;20093;-82
2023/10/02 11:16:30;;;;;;;24.27;16.27;;;;;;;39.59;27.75;96755.44;5012166;28;20024;-82
2023/10/02 11:19:21;;;;;;;26.38;17.85;;;;;;;37.88;28.44;96757.22;5020867;28;20022;-83
2023/10/02 11:22:03;;;;;;;27.02;16.60;;;;;;;37.53;28.36;96755.56;5024959;28;20033;-81
2023/10/02 11:24:33;;;;;;;25.87;15.87;;;;;;;38.89;27.23;96756.94;5011908;28;20373;-83
2023/10/02 11:27:07;;;;;;;26.25;17.20;;;;;;;39.04;27.51;96752.84;5025424;28;20990;-82
2023/10/02 11:29:42;;;;;;;28.80;18.13;;;;;;;38.68;26.86;96756.81;5011226;28;20024;-83
2023/10/02 11:32:24;;;;;;;27.33;17.88;;;;;;;37.97;27.93;96749.81;5045972;28;20116;-83
2023/10/02 11:34:58;;;;;;;;;;;;;;;38.09;28.36;96745.59;5003207;28;20052;-83
2023/10/02 11:37:26;;;;;;;25.60;17.08;;;;;;;38.30;28.47;96742.97;5022074;28;19916;-83
2023/10/02 11:39:55;;;;;;;28.48;19.05;;;;;;;38.17;28.39;96748.34;5024849;28;20507;-83
2023/10/02 11:42:35;;;;;;;28.00;18.73;;;;;;;38.84;27.12;96748.88;5005874;28;20537;-84
2023/10/02 11:45:00;;;;;;;28.25;18.98;;;;;;;37.78;27.67;96741.06;5017581;28;20034;-82
2023/10/02 11:47:28;;;;;;;28.70;18.17;;;;;;;38.46;27.08;96743.31;5010754;28;20028;-83
2023/10/02 11:49:53;;;;;;;28.73;19.27;;;;;;;39.43;26.49;96743.41;5014817;28;20025;-83
2023/10/02 11:52:19;;;;;;;27.55;17.52;;;;;;;38.67;27.07;96735.97;5028010;28;20025;-83
2023/10/02 11:54:44;;;;;;;27.15;17.90;;;;;;;39.84;26.00;96722.53;5030127;28;20021;-83
2023/10/02 11:57:12;;;;;;;27.90;18.92;;;;;;;40.69;24.70;96721.25;5026476;28;20032;-83
2023/10/02 11:59:42;;;;;;;32.10;20.05;;;;;;;39.63;25.76;96730.78;5028338;28;20041;-83
2023/10/02 12:02:13;;;;;;;26.23;17.48;;;;;;;39.43;25.68;96724.13;5026629;28;20069;-83
2023/10/02 12:04:39;;;;;;;27.98;18.58;;;;;;;39.97;25.27;96718.69;5027167;28;20029;-83
2023/10/02 12:07:05;;;;;;;26.67;18.30;;;;;;;39.69;25.36;96721.19;5017959;28;20032;-83
2023/10/02 12:09:33;;;;;;;27.17;18.50;;;;;;;39.01;25.40;96724.06;5019370;28;20013;-83
2023/10/02 12:11:59;;;;;;;30.15;18.38;;;;;;;38.73;26.14;96720.09;5018695;28;20025;-83
2023/10/02 12:14:29;;;;;;;27.95;17.73;;;;;;;39.23;25.55;96706.44;5013703;28;20028;-83
2023/10/02 12:16:57;;;;;;;28.25;18.23;;;;;;;39.75;24.66;96706.13;5038040;28;20079;-82
2023/10/02 12:19:32;;;;;;;28.80;18.08;;;;;;;38.15;25.23;96711.34;5043354;28;20029;-82
2023/10/02 12:21:59;;;;;;;29.20;18.77;;;;;;;39.41;24.61;96709.91;5026270;28;20049;-82
2023/10/02 12:24:25;;;;;;;29.95;18.73;;;;;;;37.97;25.36;96696.84;5015699;28;20020;-82
2023/10/02 12:26:52;;;;;;;28.30;18.73;;;;;;;38.59;25.16;96699.13;5029105;28;20034;-83
2023/10/02 12:29:18;;;;;;;26.10;17.75;;;;;;;38.90;25.13;96693.38;5034945;28;20022;-83
2023/10/02 12:31:43;;;;;;;29.50;19.27;;;;;;;37.74;25.92;96691.50;5028218;28;20091;-83
2023/10/02 12:34:09;;;;;;;29.02;19.08;;;;;;;38.42;25.97;96694.50;5025837;28;20517;-83
2023/10/02 12:36:50;;;;;;;25.92;18.35;;;;;;;37.99;26.92;96686.34;5023399;28;20533;-83
2023/10/02 12:39:16;;;;;;;29.73;18.35;;;;;;;37.77;26.77;96689.25;5024469;28;20022;-83
2023/10/02 12:41:42;;;;;;;31.30;19.88;;;;;;;37.69;27.16;96683.41;5025757;28;20029;-84
2023/10/02 12:44:08;;;;;;;35.80;22.27;;;;;;;37.78;27.10;96685.38;5020265;28;20022;-83
2023/10/02 12:46:43;;;;;;;35.10;21.98;;;;;;;38.80;26.29;96677.22;5028725;28;20029;-83
2023/10/02 12:49:15;;;;;;;28.10;19.30;;;;;;;37.82;26.88;96676.16;5044095;28;20024;-83
2023/10/02 12:51:44;;;;;;;32.63;19.67;;;;;;;38.38;27.13;96671.56;5033490;28;20025;-83
2023/10/02 12:54:11;;;;;;;29.30;18.83;;;;;;;38.71;27.16;96673.72;5031201;28;20116;-83